sensor_id;sensor_type;location;lat;lon;timestamp;P1;durP1;ratioP1;P2;durP2;ratioP2
21305;SDS011;10812;51.838;5.838;2023-04-01T00:01:05;3.67;;;1.80;;
21305;SDS011;10812;51.838;5.838;2023-04-01T00:03:34;5.43;;;2.67;;
21305;SDS011;10812;51.838;5.838;2023-04-01T00:06:04;4.33;;;2.13;;
21305;SDS011;10812;51.838;5.838;2023-04-01T00:08:32;5.53;;;2.20;;
21305;SDS011;10812;51.838;5.838;2023-04-01T00:11:00;4.37;;;2.20;;
21305;SDS011;10812;51.838;5.838;2023-04-01T00:13:29;4.30;;;2.10;;
21305;SDS011;10812;51.838;5.838;2023-04-01T00:15:57;4.03;;;1.80;;
21305;SDS011;10812;51.838;5.838;2023-04-01T00:18:26;6.37;;;2.13;;
21305;SDS011;10812;51.838;5.838;2023-04-01T00:20:54;3.57;;;2.23;;
21305;SDS011;10812;51.838;5.838;2023-04-01T00:23:24;5.53;;;2.07;;
21305;SDS011;10812;51.838;5.838;2023-04-01T00:25:52;4.50;;;2.47;;
21305;SDS011;10812;51.838;5.838;2023-04-01T00:28:20;5.47;;;2.63;;
21305;SDS011;10812;51.838;5.838;2023-04-01T00:30:49;4.63;;;2.33;;
21305;SDS011;10812;51.838;5.838;2023-04-01T00:33:17;5.87;;;2.43;;
21305;SDS011;10812;51.838;5.838;2023-04-01T00:35:46;4.87;;;2.87;;
21305;SDS011;10812;51.838;5.838;2023-04-01T00:38:14;6.60;;;2.67;;
21305;SDS011;10812;51.838;5.838;2023-04-01T00:40:46;4.67;;;2.80;;
21305;SDS011;10812;51.838;5.838;2023-04-01T00:43:15;6.43;;;3.13;;
21305;SDS011;10812;51.838;5.838;2023-04-01T00:45:46;6.43;;;3.37;;
21305;SDS011;10812;51.838;5.838;2023-04-01T00:48:16;4.53;;;3.60;;
21305;SDS011;10812;51.838;5.838;2023-04-01T00:50:48;3.83;;;3.10;;
21305;SDS011;10812;51.838;5.838;2023-04-01T00:53:19;7.30;;;3.67;;
21305;SDS011;10812;51.838;5.838;2023-04-01T00:55:51;7.73;;;4.93;;
21305;SDS011;10812;51.838;5.838;2023-04-01T00:58:24;7.00;;;3.60;;
21305;SDS011;10812;51.838;5.838;2023-04-01T01:00:54;9.83;;;4.50;;
21305;SDS011;10812;51.838;5.838;2023-04-01T01:03:24;8.83;;;4.60;;
21305;SDS011;10812;51.838;5.838;2023-04-01T01:05:59;7.60;;;4.60;;
21305;SDS011;10812;51.838;5.838;2023-04-01T01:08:45;7.87;;;4.40;;
21305;SDS011;10812;51.838;5.838;2023-04-01T01:11:29;7.27;;;4.83;;
21305;SDS011;10812;51.838;5.838;2023-04-01T01:14:11;6.13;;;4.83;;
21305;SDS011;10812;51.838;5.838;2023-04-01T01:16:48;7.70;;;4.53;;
21305;SDS011;10812;51.838;5.838;2023-04-01T01:19:32;7.63;;;4.93;;
21305;SDS011;10812;51.838;5.838;2023-04-01T01:22:24;9.00;;;6.00;;
21305;SDS011;10812;51.838;5.838;2023-04-01T01:28:18;9.50;;;6.60;;
21305;SDS011;10812;51.838;5.838;2023-04-01T01:30:56;9.97;;;6.53;;
21305;SDS011;10812;51.838;5.838;2023-04-01T01:33:34;9.47;;;6.20;;
21305;SDS011;10812;51.838;5.838;2023-04-01T01:36:11;8.07;;;5.90;;
21305;SDS011;10812;51.838;5.838;2023-04-01T01:38:41;9.97;;;7.20;;
21305;SDS011;10812;51.838;5.838;2023-04-01T01:41:10;9.63;;;6.63;;
21305;SDS011;10812;51.838;5.838;2023-04-01T01:43:41;9.20;;;7.17;;
21305;SDS011;10812;51.838;5.838;2023-04-01T01:46:12;10.23;;;6.90;;
21305;SDS011;10812;51.838;5.838;2023-04-01T01:48:44;11.17;;;7.70;;
21305;SDS011;10812;51.838;5.838;2023-04-01T01:51:16;9.87;;;6.97;;
21305;SDS011;10812;51.838;5.838;2023-04-01T01:53:45;11.23;;;7.20;;
21305;SDS011;10812;51.838;5.838;2023-04-01T01:56:13;9.23;;;7.00;;
21305;SDS011;10812;51.838;5.838;2023-04-01T01:58:42;11.30;;;7.03;;
21305;SDS011;10812;51.838;5.838;2023-04-01T02:01:13;12.47;;;7.30;;
21305;SDS011;10812;51.838;5.838;2023-04-01T02:03:44;8.90;;;6.73;;
21305;SDS011;10812;51.838;5.838;2023-04-01T02:06:14;9.87;;;7.17;;
21305;SDS011;10812;51.838;5.838;2023-04-01T02:08:47;10.87;;;7.00;;
21305;SDS011;10812;51.838;5.838;2023-04-01T02:11:19;11.97;;;7.27;;
21305;SDS011;10812;51.838;5.838;2023-04-01T02:13:53;10.27;;;7.13;;
21305;SDS011;10812;51.838;5.838;2023-04-01T02:16:26;11.23;;;7.43;;
21305;SDS011;10812;51.838;5.838;2023-04-01T02:18:57;9.70;;;6.70;;
21305;SDS011;10812;51.838;5.838;2023-04-01T02:21:29;9.40;;;6.77;;
21305;SDS011;10812;51.838;5.838;2023-04-01T02:23:59;8.57;;;6.73;;
21305;SDS011;10812;51.838;5.838;2023-04-01T02:26:31;9.73;;;6.70;;
21305;SDS011;10812;51.838;5.838;2023-04-01T02:29:00;9.10;;;6.73;;
21305;SDS011;10812;51.838;5.838;2023-04-01T02:31:30;7.00;;;5.87;;
21305;SDS011;10812;51.838;5.838;2023-04-01T02:33:59;7.47;;;4.40;;
21305;SDS011;10812;51.838;5.838;2023-04-01T02:36:30;5.77;;;4.20;;
21305;SDS011;10812;51.838;5.838;2023-04-01T02:38:59;4.83;;;3.63;;
21305;SDS011;10812;51.838;5.838;2023-04-01T02:41:29;5.23;;;3.90;;
21305;SDS011;10812;51.838;5.838;2023-04-01T02:43:57;4.00;;;3.37;;
21305;SDS011;10812;51.838;5.838;2023-04-01T02:46:25;4.30;;;3.30;;
21305;SDS011;10812;51.838;5.838;2023-04-01T02:48:54;5.60;;;3.63;;
21305;SDS011;10812;51.838;5.838;2023-04-01T02:51:22;5.80;;;3.67;;
21305;SDS011;10812;51.838;5.838;2023-04-01T02:53:52;4.73;;;3.40;;
21305;SDS011;10812;51.838;5.838;2023-04-01T02:56:20;5.70;;;3.90;;
21305;SDS011;10812;51.838;5.838;2023-04-01T02:58:48;5.57;;;3.77;;
21305;SDS011;10812;51.838;5.838;2023-04-01T03:06:37;3.63;;;3.10;;
21305;SDS011;10812;51.838;5.838;2023-04-01T03:09:07;3.47;;;2.90;;
21305;SDS011;10812;51.838;5.838;2023-04-01T03:11:35;3.57;;;2.90;;
21305;SDS011;10812;51.838;5.838;2023-04-01T03:14:03;4.60;;;3.80;;
21305;SDS011;10812;51.838;5.838;2023-04-01T03:16:31;4.97;;;3.57;;
21305;SDS011;10812;51.838;5.838;2023-04-01T03:18:59;5.30;;;3.80;;
21305;SDS011;10812;51.838;5.838;2023-04-01T03:21:28;6.50;;;3.90;;
21305;SDS011;10812;51.838;5.838;2023-04-01T03:23:56;5.67;;;3.50;;
21305;SDS011;10812;51.838;5.838;2023-04-01T03:26:26;6.30;;;3.93;;
21305;SDS011;10812;51.838;5.838;2023-04-01T03:28:54;4.73;;;3.87;;
21305;SDS011;10812;51.838;5.838;2023-04-01T03:31:22;3.53;;;3.03;;
21305;SDS011;10812;51.838;5.838;2023-04-01T03:33:51;4.17;;;3.40;;
21305;SDS011;10812;51.838;5.838;2023-04-01T03:36:19;4.87;;;3.67;;
21305;SDS011;10812;51.838;5.838;2023-04-01T03:38:47;5.47;;;3.80;;
21305;SDS011;10812;51.838;5.838;2023-04-01T03:41:16;5.43;;;3.67;;
21305;SDS011;10812;51.838;5.838;2023-04-01T03:43:46;4.90;;;3.63;;
21305;SDS011;10812;51.838;5.838;2023-04-01T03:46:16;4.80;;;3.43;;
21305;SDS011;10812;51.838;5.838;2023-04-01T03:48:45;4.47;;;3.53;;
21305;SDS011;10812;51.838;5.838;2023-04-01T03:51:13;5.57;;;3.50;;
21305;SDS011;10812;51.838;5.838;2023-04-01T03:53:41;5.43;;;3.07;;
21305;SDS011;10812;51.838;5.838;2023-04-01T03:56:09;5.73;;;3.80;;
21305;SDS011;10812;51.838;5.838;2023-04-01T03:58:38;4.80;;;3.17;;
21305;SDS011;10812;51.838;5.838;2023-04-01T04:01:14;5.17;;;3.27;;
21305;SDS011;10812;51.838;5.838;2023-04-01T04:03:44;4.53;;;3.13;;
21305;SDS011;10812;51.838;5.838;2023-04-01T04:06:12;5.67;;;3.93;;
21305;SDS011;10812;51.838;5.838;2023-04-01T04:08:41;6.20;;;3.07;;
21305;SDS011;10812;51.838;5.838;2023-04-01T04:11:09;4.20;;;2.90;;
21305;SDS011;10812;51.838;5.838;2023-04-01T04:13:37;4.27;;;3.00;;
21305;SDS011;10812;51.838;5.838;2023-04-01T04:16:06;4.60;;;3.17;;
21305;SDS011;10812;51.838;5.838;2023-04-01T04:18:36;4.07;;;3.10;;
21305;SDS011;10812;51.838;5.838;2023-04-01T04:21:04;4.83;;;3.70;;
21305;SDS011;10812;51.838;5.838;2023-04-01T04:23:32;6.03;;;3.50;;
21305;SDS011;10812;51.838;5.838;2023-04-01T04:26:01;4.33;;;3.43;;
21305;SDS011;10812;51.838;5.838;2023-04-01T04:28:31;4.53;;;3.63;;
21305;SDS011;10812;51.838;5.838;2023-04-01T04:31:00;4.60;;;3.83;;
21305;SDS011;10812;51.838;5.838;2023-04-01T04:33:28;5.60;;;4.13;;
21305;SDS011;10812;51.838;5.838;2023-04-01T04:35:58;4.87;;;3.97;;
21305;SDS011;10812;51.838;5.838;2023-04-01T04:38:27;6.73;;;5.20;;
21305;SDS011;10812;51.838;5.838;2023-04-01T04:40:55;7.50;;;5.00;;
21305;SDS011;10812;51.838;5.838;2023-04-01T04:43:23;7.60;;;5.60;;
21305;SDS011;10812;51.838;5.838;2023-04-01T04:45:52;7.10;;;5.67;;
21305;SDS011;10812;51.838;5.838;2023-04-01T04:48:20;6.97;;;5.57;;
21305;SDS011;10812;51.838;5.838;2023-04-01T04:50:48;9.07;;;6.87;;
21305;SDS011;10812;51.838;5.838;2023-04-01T04:53:19;8.07;;;6.30;;
21305;SDS011;10812;51.838;5.838;2023-04-01T04:55:48;10.33;;;6.67;;
21305;SDS011;10812;51.838;5.838;2023-04-01T04:58:17;10.73;;;7.30;;
21305;SDS011;10812;51.838;5.838;2023-04-01T05:00:46;8.77;;;6.80;;
21305;SDS011;10812;51.838;5.838;2023-04-01T05:03:14;9.27;;;6.67;;
21305;SDS011;10812;51.838;5.838;2023-04-01T05:05:47;9.03;;;6.80;;
21305;SDS011;10812;51.838;5.838;2023-04-01T05:08:18;9.87;;;6.77;;
21305;SDS011;10812;51.838;5.838;2023-04-01T05:10:46;10.80;;;6.70;;
21305;SDS011;10812;51.838;5.838;2023-04-01T05:13:14;7.97;;;5.77;;
21305;SDS011;10812;51.838;5.838;2023-04-01T05:15:43;8.83;;;6.43;;
21305;SDS011;10812;51.838;5.838;2023-04-01T05:18:11;8.33;;;6.00;;
21305;SDS011;10812;51.838;5.838;2023-04-01T05:20:39;7.10;;;5.67;;
21305;SDS011;10812;51.838;5.838;2023-04-01T05:23:12;7.43;;;5.73;;
21305;SDS011;10812;51.838;5.838;2023-04-01T05:25:42;8.47;;;6.17;;
21305;SDS011;10812;51.838;5.838;2023-04-01T05:28:11;8.43;;;6.27;;
21305;SDS011;10812;51.838;5.838;2023-04-01T05:30:39;8.83;;;6.83;;
21305;SDS011;10812;51.838;5.838;2023-04-01T05:33:08;8.63;;;6.73;;
21305;SDS011;10812;51.838;5.838;2023-04-01T05:35:36;11.73;;;7.23;;
21305;SDS011;10812;51.838;5.838;2023-04-01T05:38:05;11.93;;;8.13;;
21305;SDS011;10812;51.838;5.838;2023-04-01T05:40:33;11.63;;;7.43;;
21305;SDS011;10812;51.838;5.838;2023-04-01T05:43:02;10.57;;;7.73;;
21305;SDS011;10812;51.838;5.838;2023-04-01T05:45:31;11.97;;;7.93;;
21305;SDS011;10812;51.838;5.838;2023-04-01T05:47:59;14.93;;;8.77;;
21305;SDS011;10812;51.838;5.838;2023-04-01T05:50:27;13.83;;;8.67;;
21305;SDS011;10812;51.838;5.838;2023-04-01T05:52:56;12.57;;;8.37;;
21305;SDS011;10812;51.838;5.838;2023-04-01T05:55:24;13.03;;;8.70;;
21305;SDS011;10812;51.838;5.838;2023-04-01T05:57:52;13.30;;;8.63;;
21305;SDS011;10812;51.838;5.838;2023-04-01T06:00:21;18.03;;;9.50;;
21305;SDS011;10812;51.838;5.838;2023-04-01T06:02:49;17.80;;;9.77;;
21305;SDS011;10812;51.838;5.838;2023-04-01T06:05:20;17.77;;;9.43;;
21305;SDS011;10812;51.838;5.838;2023-04-01T06:07:49;13.83;;;8.73;;
21305;SDS011;10812;51.838;5.838;2023-04-01T06:10:19;18.70;;;9.00;;
21305;SDS011;10812;51.838;5.838;2023-04-01T06:12:54;14.50;;;8.60;;
21305;SDS011;10812;51.838;5.838;2023-04-01T06:15:35;14.37;;;7.43;;
21305;SDS011;10812;51.838;5.838;2023-04-01T06:18:21;12.07;;;6.53;;
21305;SDS011;10812;51.838;5.838;2023-04-01T06:21:12;11.47;;;6.83;;
21305;SDS011;10812;51.838;5.838;2023-04-01T06:23:57;13.90;;;6.83;;
21305;SDS011;10812;51.838;5.838;2023-04-01T06:26:39;13.43;;;6.30;;
21305;SDS011;10812;51.838;5.838;2023-04-01T06:32:28;12.30;;;6.17;;
21305;SDS011;10812;51.838;5.838;2023-04-01T06:35:13;13.77;;;7.27;;
21305;SDS011;10812;51.838;5.838;2023-04-01T06:38:03;13.53;;;6.77;;
21305;SDS011;10812;51.838;5.838;2023-04-01T06:40:42;13.90;;;7.93;;
21305;SDS011;10812;51.838;5.838;2023-04-01T06:43:22;18.93;;;8.83;;
21305;SDS011;10812;51.838;5.838;2023-04-01T06:46:02;18.17;;;9.23;;
21305;SDS011;10812;51.838;5.838;2023-04-01T06:48:45;18.80;;;9.63;;
21305;SDS011;10812;51.838;5.838;2023-04-01T06:51:31;21.60;;;10.73;;
21305;SDS011;10812;51.838;5.838;2023-04-01T06:54:10;20.77;;;11.23;;
21305;SDS011;10812;51.838;5.838;2023-04-01T06:56:40;23.10;;;11.90;;
21305;SDS011;10812;51.838;5.838;2023-04-01T06:59:13;21.33;;;11.43;;
21305;SDS011;10812;51.838;5.838;2023-04-01T07:01:45;20.73;;;11.87;;
21305;SDS011;10812;51.838;5.838;2023-04-01T07:04:18;22.87;;;13.00;;
21305;SDS011;10812;51.838;5.838;2023-04-01T07:06:50;23.53;;;12.97;;
21305;SDS011;10812;51.838;5.838;2023-04-01T07:09:21;23.77;;;12.93;;
21305;SDS011;10812;51.838;5.838;2023-04-01T07:11:53;27.50;;;14.27;;
21305;SDS011;10812;51.838;5.838;2023-04-01T07:14:28;27.23;;;12.73;;
21305;SDS011;10812;51.838;5.838;2023-04-01T07:17:00;22.67;;;12.23;;
21305;SDS011;10812;51.838;5.838;2023-04-01T07:19:37;24.33;;;13.37;;
21305;SDS011;10812;51.838;5.838;2023-04-01T07:22:14;19.27;;;11.77;;
21305;SDS011;10812;51.838;5.838;2023-04-01T07:24:48;18.50;;;11.23;;
21305;SDS011;10812;51.838;5.838;2023-04-01T07:27:18;19.73;;;10.57;;
21305;SDS011;10812;51.838;5.838;2023-04-01T07:29:46;22.50;;;11.27;;
21305;SDS011;10812;51.838;5.838;2023-04-01T07:32:17;20.27;;;11.67;;
21305;SDS011;10812;51.838;5.838;2023-04-01T07:34:55;22.27;;;12.03;;
21305;SDS011;10812;51.838;5.838;2023-04-01T07:37:37;21.00;;;11.20;;
21305;SDS011;10812;51.838;5.838;2023-04-01T07:40:15;18.67;;;11.40;;
21305;SDS011;10812;51.838;5.838;2023-04-01T07:42:53;19.47;;;11.40;;
21305;SDS011;10812;51.838;5.838;2023-04-01T07:45:36;17.37;;;10.40;;
21305;SDS011;10812;51.838;5.838;2023-04-01T07:48:12;20.00;;;10.97;;
21305;SDS011;10812;51.838;5.838;2023-04-01T07:50:50;21.93;;;11.00;;
21305;SDS011;10812;51.838;5.838;2023-04-01T07:53:29;18.03;;;11.00;;
21305;SDS011;10812;51.838;5.838;2023-04-01T07:56:05;18.37;;;10.53;;
21305;SDS011;10812;51.838;5.838;2023-04-01T07:58:40;18.13;;;10.13;;
21305;SDS011;10812;51.838;5.838;2023-04-01T08:01:16;16.33;;;9.57;;
21305;SDS011;10812;51.838;5.838;2023-04-01T08:03:55;15.37;;;8.63;;
21305;SDS011;10812;51.838;5.838;2023-04-01T08:06:37;17.20;;;9.77;;
21305;SDS011;10812;51.838;5.838;2023-04-01T08:09:15;15.97;;;10.00;;
21305;SDS011;10812;51.838;5.838;2023-04-01T08:11:53;17.83;;;9.93;;
21305;SDS011;10812;51.838;5.838;2023-04-01T08:14:30;16.07;;;9.57;;
21305;SDS011;10812;51.838;5.838;2023-04-01T08:17:07;13.30;;;8.67;;
21305;SDS011;10812;51.838;5.838;2023-04-01T08:19:46;17.33;;;9.77;;
21305;SDS011;10812;51.838;5.838;2023-04-01T08:22:26;12.50;;;7.20;;
21305;SDS011;10812;51.838;5.838;2023-04-01T08:24:57;13.10;;;8.00;;
21305;SDS011;10812;51.838;5.838;2023-04-01T08:27:31;12.43;;;7.80;;
21305;SDS011;10812;51.838;5.838;2023-04-01T08:30:06;10.67;;;7.03;;
21305;SDS011;10812;51.838;5.838;2023-04-01T08:32:46;12.63;;;8.70;;
21305;SDS011;10812;51.838;5.838;2023-04-01T08:35:21;13.90;;;8.20;;
21305;SDS011;10812;51.838;5.838;2023-04-01T08:38:00;15.40;;;9.47;;
21305;SDS011;10812;51.838;5.838;2023-04-01T08:43:38;14.33;;;9.27;;
21305;SDS011;10812;51.838;5.838;2023-04-01T08:46:35;12.60;;;8.57;;
21305;SDS011;10812;51.838;5.838;2023-04-01T08:49:31;14.97;;;8.57;;
21305;SDS011;10812;51.838;5.838;2023-04-01T08:52:26;13.07;;;8.47;;
21305;SDS011;10812;51.838;5.838;2023-04-01T08:58:18;14.77;;;8.73;;
21305;SDS011;10812;51.838;5.838;2023-04-01T09:01:06;13.17;;;8.53;;
21305;SDS011;10812;51.838;5.838;2023-04-01T09:03:44;11.00;;;7.70;;
21305;SDS011;10812;51.838;5.838;2023-04-01T09:09:21;11.53;;;8.43;;
21305;SDS011;10812;51.838;5.838;2023-04-01T09:15:12;13.27;;;7.73;;
21305;SDS011;10812;51.838;5.838;2023-04-01T09:21:23;12.10;;;7.43;;
21305;SDS011;10812;51.838;5.838;2023-04-01T09:24:13;12.20;;;7.40;;
21305;SDS011;10812;51.838;5.838;2023-04-01T09:27:05;12.17;;;7.40;;
21305;SDS011;10812;51.838;5.838;2023-04-01T09:29:53;12.07;;;7.93;;
21305;SDS011;10812;51.838;5.838;2023-04-01T09:32:37;11.13;;;6.77;;
21305;SDS011;10812;51.838;5.838;2023-04-01T09:35:21;12.60;;;7.67;;
21305;SDS011;10812;51.838;5.838;2023-04-01T09:38:11;10.77;;;6.90;;
21305;SDS011;10812;51.838;5.838;2023-04-01T09:40:51;11.53;;;6.30;;
21305;SDS011;10812;51.838;5.838;2023-04-01T09:43:25;13.23;;;6.50;;
21305;SDS011;10812;51.838;5.838;2023-04-01T09:46:09;11.90;;;6.43;;
21305;SDS011;10812;51.838;5.838;2023-04-01T09:48:51;13.60;;;8.00;;
21305;SDS011;10812;51.838;5.838;2023-04-01T09:52:02;12.93;;;7.93;;
21305;SDS011;10812;51.838;5.838;2023-04-01T09:55:02;14.07;;;8.03;;
21305;SDS011;10812;51.838;5.838;2023-04-01T09:58:04;14.73;;;8.23;;
21305;SDS011;10812;51.838;5.838;2023-04-01T10:00:55;13.73;;;9.10;;
21305;SDS011;10812;51.838;5.838;2023-04-01T10:04:11;17.80;;;9.70;;
21305;SDS011;10812;51.838;5.838;2023-04-01T10:10:30;12.97;;;8.40;;
21305;SDS011;10812;51.838;5.838;2023-04-01T10:13:36;17.53;;;9.30;;
21305;SDS011;10812;51.838;5.838;2023-04-01T10:16:48;14.00;;;8.37;;
21305;SDS011;10812;51.838;5.838;2023-04-01T10:23:12;16.77;;;8.67;;
21305;SDS011;10812;51.838;5.838;2023-04-01T10:29:16;15.70;;;10.57;;
21305;SDS011;10812;51.838;5.838;2023-04-01T10:38:22;21.13;;;11.47;;
21305;SDS011;10812;51.838;5.838;2023-04-01T10:41:25;17.60;;;10.97;;
21305;SDS011;10812;51.838;5.838;2023-04-01T10:44:38;18.30;;;10.30;;
21305;SDS011;10812;51.838;5.838;2023-04-01T10:47:50;16.93;;;11.80;;
21305;SDS011;10812;51.838;5.838;2023-04-01T10:56:53;20.80;;;12.10;;
21305;SDS011;10812;51.838;5.838;2023-04-01T11:05:28;21.47;;;12.43;;
21305;SDS011;10812;51.838;5.838;2023-04-01T11:14:52;17.73;;;9.83;;
21305;SDS011;10812;51.838;5.838;2023-04-01T11:23:59;13.77;;;9.70;;
21305;SDS011;10812;51.838;5.838;2023-04-01T11:26:44;12.93;;;8.60;;
21305;SDS011;10812;51.838;5.838;2023-04-01T11:32:31;11.67;;;8.43;;
21305;SDS011;10812;51.838;5.838;2023-04-01T11:38:24;9.67;;;6.90;;
21305;SDS011;10812;51.838;5.838;2023-04-01T11:41:06;9.37;;;6.73;;
21305;SDS011;10812;51.838;5.838;2023-04-01T11:43:47;8.23;;;6.20;;
21305;SDS011;10812;51.838;5.838;2023-04-01T11:46:25;7.77;;;6.40;;
21305;SDS011;10812;51.838;5.838;2023-04-01T11:49:02;6.53;;;5.27;;
21305;SDS011;10812;51.838;5.838;2023-04-01T11:52:00;8.67;;;6.30;;
21305;SDS011;10812;51.838;5.838;2023-04-01T11:54:51;7.27;;;5.80;;
21305;SDS011;10812;51.838;5.838;2023-04-01T11:57:44;9.13;;;6.40;;
21305;SDS011;10812;51.838;5.838;2023-04-01T12:00:32;9.33;;;7.03;;
21305;SDS011;10812;51.838;5.838;2023-04-01T12:03:26;10.07;;;6.97;;
21305;SDS011;10812;51.838;5.838;2023-04-01T12:06:23;9.87;;;7.50;;
21305;SDS011;10812;51.838;5.838;2023-04-01T12:09:01;12.50;;;7.67;;
21305;SDS011;10812;51.838;5.838;2023-04-01T12:11:39;12.50;;;8.67;;
21305;SDS011;10812;51.838;5.838;2023-04-01T12:14:16;11.17;;;7.40;;
21305;SDS011;10812;51.838;5.838;2023-04-01T12:16:51;11.03;;;8.50;;
21305;SDS011;10812;51.838;5.838;2023-04-01T12:19:31;8.17;;;6.33;;
21305;SDS011;10812;51.838;5.838;2023-04-01T12:22:10;10.07;;;7.13;;
21305;SDS011;10812;51.838;5.838;2023-04-01T12:25:01;10.47;;;6.47;;
21305;SDS011;10812;51.838;5.838;2023-04-01T12:27:42;7.83;;;5.67;;
21305;SDS011;10812;51.838;5.838;2023-04-01T12:30:27;8.80;;;6.00;;
21305;SDS011;10812;51.838;5.838;2023-04-01T12:33:11;7.53;;;5.37;;
21305;SDS011;10812;51.838;5.838;2023-04-01T12:35:54;8.37;;;6.17;;
21305;SDS011;10812;51.838;5.838;2023-04-01T12:38:31;6.17;;;4.97;;
21305;SDS011;10812;51.838;5.838;2023-04-01T12:41:11;8.10;;;5.50;;
21305;SDS011;10812;51.838;5.838;2023-04-01T12:46:54;5.97;;;3.57;;
21305;SDS011;10812;51.838;5.838;2023-04-01T12:49:59;4.67;;;3.50;;
21305;SDS011;10812;51.838;5.838;2023-04-01T12:52:48;2.67;;;2.13;;
21305;SDS011;10812;51.838;5.838;2023-04-01T12:55:34;4.30;;;2.70;;
21305;SDS011;10812;51.838;5.838;2023-04-01T13:01:19;2.63;;;2.00;;
21305;SDS011;10812;51.838;5.838;2023-04-01T13:04:01;2.67;;;2.03;;
21305;SDS011;10812;51.838;5.838;2023-04-01T13:06:58;3.67;;;2.23;;
21305;SDS011;10812;51.838;5.838;2023-04-01T13:09:45;2.60;;;1.57;;
21305;SDS011;10812;51.838;5.838;2023-04-01T13:12:27;3.10;;;1.23;;
21305;SDS011;10812;51.838;5.838;2023-04-01T13:15:10;2.37;;;1.50;;
21305;SDS011;10812;51.838;5.838;2023-04-01T13:17:49;2.00;;;1.40;;
21305;SDS011;10812;51.838;5.838;2023-04-01T13:20:24;3.87;;;2.27;;
21305;SDS011;10812;51.838;5.838;2023-04-01T13:23:05;1.93;;;1.30;;
21305;SDS011;10812;51.838;5.838;2023-04-01T13:25:45;1.80;;;1.40;;
21305;SDS011;10812;51.838;5.838;2023-04-01T13:28:37;3.83;;;1.80;;
21305;SDS011;10812;51.838;5.838;2023-04-01T13:31:09;15.37;;;2.00;;
21305;SDS011;10812;51.838;5.838;2023-04-01T13:33:55;2.93;;;1.80;;
21305;SDS011;10812;51.838;5.838;2023-04-01T13:36:31;2.93;;;2.20;;
21305;SDS011;10812;51.838;5.838;2023-04-01T13:39:09;4.30;;;2.50;;
21305;SDS011;10812;51.838;5.838;2023-04-01T13:41:50;3.60;;;2.60;;
21305;SDS011;10812;51.838;5.838;2023-04-01T13:44:31;3.77;;;2.80;;
21305;SDS011;10812;51.838;5.838;2023-04-01T13:47:08;4.87;;;3.23;;
21305;SDS011;10812;51.838;5.838;2023-04-01T13:50:17;6.17;;;3.77;;
21305;SDS011;10812;51.838;5.838;2023-04-01T13:53:05;6.03;;;4.53;;
21305;SDS011;10812;51.838;5.838;2023-04-01T13:56:04;5.70;;;4.60;;
21305;SDS011;10812;51.838;5.838;2023-04-01T13:58:55;6.57;;;4.93;;
21305;SDS011;10812;51.838;5.838;2023-04-01T14:01:35;5.73;;;4.43;;
21305;SDS011;10812;51.838;5.838;2023-04-01T14:07:06;6.47;;;5.03;;
21305;SDS011;10812;51.838;5.838;2023-04-01T14:09:52;5.10;;;4.00;;
21305;SDS011;10812;51.838;5.838;2023-04-01T14:12:35;4.33;;;3.33;;
21305;SDS011;10812;51.838;5.838;2023-04-01T14:15:17;3.80;;;2.90;;
21305;SDS011;10812;51.838;5.838;2023-04-01T14:18:03;2.77;;;2.13;;
21305;SDS011;10812;51.838;5.838;2023-04-01T14:20:48;3.80;;;2.43;;
21305;SDS011;10812;51.838;5.838;2023-04-01T14:23:36;3.57;;;2.20;;
21305;SDS011;10812;51.838;5.838;2023-04-01T14:26:22;3.33;;;2.70;;
21305;SDS011;10812;51.838;5.838;2023-04-01T14:29:02;4.13;;;3.30;;
21305;SDS011;10812;51.838;5.838;2023-04-01T14:31:49;3.87;;;3.10;;
21305;SDS011;10812;51.838;5.838;2023-04-01T14:34:34;4.33;;;3.03;;
21305;SDS011;10812;51.838;5.838;2023-04-01T14:37:33;3.90;;;2.70;;
21305;SDS011;10812;51.838;5.838;2023-04-01T14:40:26;3.63;;;2.77;;
21305;SDS011;10812;51.838;5.838;2023-04-01T14:42:58;4.33;;;3.13;;
21305;SDS011;10812;51.838;5.838;2023-04-01T14:45:41;3.43;;;2.47;;
21305;SDS011;10812;51.838;5.838;2023-04-01T14:48:32;3.63;;;2.60;;
21305;SDS011;10812;51.838;5.838;2023-04-01T14:51:09;5.03;;;3.00;;
21305;SDS011;10812;51.838;5.838;2023-04-01T14:53:41;5.13;;;2.80;;
21305;SDS011;10812;51.838;5.838;2023-04-01T14:59:04;5.23;;;3.40;;
21305;SDS011;10812;51.838;5.838;2023-04-01T15:01:43;5.20;;;2.93;;
21305;SDS011;10812;51.838;5.838;2023-04-01T15:04:33;5.20;;;3.93;;
21305;SDS011;10812;51.838;5.838;2023-04-01T15:10:17;5.57;;;4.03;;
21305;SDS011;10812;51.838;5.838;2023-04-01T15:13:00;6.27;;;3.97;;
21305;SDS011;10812;51.838;5.838;2023-04-01T15:15:39;6.43;;;4.03;;
21305;SDS011;10812;51.838;5.838;2023-04-01T15:18:21;5.67;;;4.33;;
21305;SDS011;10812;51.838;5.838;2023-04-01T15:23:54;5.67;;;3.77;;
21305;SDS011;10812;51.838;5.838;2023-04-01T15:26:31;5.97;;;3.90;;
21305;SDS011;10812;51.838;5.838;2023-04-01T15:29:24;3.63;;;3.30;;
21305;SDS011;10812;51.838;5.838;2023-04-01T15:32:00;3.37;;;2.83;;
21305;SDS011;10812;51.838;5.838;2023-04-01T15:34:33;4.33;;;2.83;;
21305;SDS011;10812;51.838;5.838;2023-04-01T15:37:09;3.40;;;2.57;;
21305;SDS011;10812;51.838;5.838;2023-04-01T15:39:46;3.10;;;2.37;;
21305;SDS011;10812;51.838;5.838;2023-04-01T15:42:31;3.80;;;2.57;;
21305;SDS011;10812;51.838;5.838;2023-04-01T15:45:16;3.70;;;2.47;;
21305;SDS011;10812;51.838;5.838;2023-04-01T15:48:01;3.00;;;2.30;;
21305;SDS011;10812;51.838;5.838;2023-04-01T15:50:44;4.20;;;2.70;;
21305;SDS011;10812;51.838;5.838;2023-04-01T15:53:24;2.50;;;1.77;;
21305;SDS011;10812;51.838;5.838;2023-04-01T15:56:16;2.60;;;2.37;;
21305;SDS011;10812;51.838;5.838;2023-04-01T15:58:55;1.77;;;1.60;;
21305;SDS011;10812;51.838;5.838;2023-04-01T16:01:40;1.47;;;1.20;;
21305;SDS011;10812;51.838;5.838;2023-04-01T16:04:21;1.00;;;0.90;;
21305;SDS011;10812;51.838;5.838;2023-04-01T16:07:18;1.00;;;0.90;;
21305;SDS011;10812;51.838;5.838;2023-04-01T16:10:01;2.70;;;0.90;;
21305;SDS011;10812;51.838;5.838;2023-04-01T16:12:41;1.20;;;1.00;;
21305;SDS011;10812;51.838;5.838;2023-04-01T16:15:22;1.83;;;1.13;;
21305;SDS011;10812;51.838;5.838;2023-04-01T16:18:01;2.43;;;1.20;;
21305;SDS011;10812;51.838;5.838;2023-04-01T16:20:49;2.87;;;2.23;;
21305;SDS011;10812;51.838;5.838;2023-04-01T16:23:24;2.93;;;2.40;;
21305;SDS011;10812;51.838;5.838;2023-04-01T16:26:01;2.57;;;2.20;;
21305;SDS011;10812;51.838;5.838;2023-04-01T16:28:36;3.63;;;3.03;;
21305;SDS011;10812;51.838;5.838;2023-04-01T16:31:12;4.27;;;3.17;;
21305;SDS011;10812;51.838;5.838;2023-04-01T16:33:46;4.43;;;3.97;;
21305;SDS011;10812;51.838;5.838;2023-04-01T16:36:22;4.03;;;3.00;;
21305;SDS011;10812;51.838;5.838;2023-04-01T16:39:01;4.10;;;3.27;;
21305;SDS011;10812;51.838;5.838;2023-04-01T16:41:41;3.83;;;3.20;;
21305;SDS011;10812;51.838;5.838;2023-04-01T16:44:17;4.43;;;3.20;;
21305;SDS011;10812;51.838;5.838;2023-04-01T16:46:48;4.97;;;4.00;;
21305;SDS011;10812;51.838;5.838;2023-04-01T16:49:27;3.97;;;3.57;;
21305;SDS011;10812;51.838;5.838;2023-04-01T16:52:04;4.30;;;3.73;;
21305;SDS011;10812;51.838;5.838;2023-04-01T16:54:44;6.00;;;4.00;;
21305;SDS011;10812;51.838;5.838;2023-04-01T16:57:21;5.93;;;4.43;;
21305;SDS011;10812;51.838;5.838;2023-04-01T16:59:57;5.33;;;4.83;;
21305;SDS011;10812;51.838;5.838;2023-04-01T17:02:31;5.00;;;4.33;;
21305;SDS011;10812;51.838;5.838;2023-04-01T17:05:03;5.80;;;4.50;;
21305;SDS011;10812;51.838;5.838;2023-04-01T17:07:38;5.40;;;4.53;;
21305;SDS011;10812;51.838;5.838;2023-04-01T17:10:17;5.27;;;4.30;;
21305;SDS011;10812;51.838;5.838;2023-04-01T17:13:09;4.40;;;4.00;;
21305;SDS011;10812;51.838;5.838;2023-04-01T17:15:53;5.13;;;3.20;;